createdAt,value
2022-12-24T00:01:02.185Z,72.04
2022-12-24T00:03:29.303Z,71.83
2022-12-24T00:05:56.141Z,70.26
2022-12-24T00:08:22.876Z,74.01
2022-12-24T00:10:52.411Z,73.46
2022-12-24T00:13:19.525Z,76.20
2022-12-24T00:15:46.487Z,75.54
2022-12-24T00:18:13.225Z,73.82
2022-12-24T00:20:39.905Z,71.26
2022-12-24T00:23:06.636Z,72.99
2022-12-24T00:25:33.311Z,75.60
2022-12-24T00:28:00.025Z,75.19
2022-12-24T00:30:26.650Z,78.23
2022-12-24T00:32:53.285Z,79.89
2022-12-24T00:35:19.937Z,78.00
2022-12-24T00:37:49.939Z,75.77
2022-12-24T00:40:17.011Z,77.32
2022-12-24T00:42:43.684Z,75.54
2022-12-24T00:45:10.937Z,78.00
2022-12-24T00:47:37.652Z,80.28
2022-12-24T00:50:04.846Z,81.16
2022-12-24T00:52:31.472Z,83.77
2022-12-24T00:54:58.137Z,85.02
2022-12-24T00:57:24.780Z,87.39
2022-12-24T00:59:51.463Z,86.53
2022-12-24T01:02:18.241Z,88.11
2022-12-24T01:05:03.501Z,87.91
2022-12-24T01:07:30.143Z,88.49
2022-12-24T01:09:56.823Z,86.23
2022-12-24T01:12:23.729Z,85.92
2022-12-24T01:14:50.432Z,85.16
2022-12-24T01:17:17.227Z,85.95
2022-12-24T01:19:43.898Z,83.34
2022-12-24T01:22:10.561Z,84.35
2022-12-24T01:24:37.199Z,84.16
2022-12-24T01:27:03.877Z,84.19
2022-12-24T01:29:30.498Z,84.80
2022-12-24T01:31:57.156Z,84.21
2022-12-24T01:34:23.821Z,86.56
2022-12-24T01:36:50.464Z,85.36
2022-12-24T01:39:17.083Z,84.99
2022-12-24T01:42:02.139Z,85.68
2022-12-24T01:44:37.227Z,83.22
2022-12-24T01:47:07.218Z,83.34
2022-12-24T01:49:34.052Z,82.03
2022-12-24T01:52:11.610Z,82.27
2022-12-24T01:54:48.634Z,83.45
2022-12-24T01:57:16.785Z,84.64
2022-12-24T01:59:44.846Z,84.63
2022-12-24T02:02:11.628Z,84.15
2022-12-24T02:04:58.129Z,82.11
2022-12-24T02:07:24.940Z,79.23
2022-12-24T02:09:52.464Z,78.76
2022-12-24T02:12:19.143Z,77.35
2022-12-24T02:14:45.802Z,78.49
2022-12-24T02:17:32.298Z,73.99
2022-12-24T02:20:31.938Z,73.80
2022-12-24T02:23:01.350Z,71.59
2022-12-24T02:26:00.568Z,71.24
2022-12-24T02:28:45.692Z,69.24
2022-12-24T02:31:14.284Z,73.07
2022-12-24T02:33:51.113Z,73.84
2022-12-24T02:36:25.806Z,76.26
2022-12-24T02:39:02.481Z,75.90
2022-12-24T02:41:54.029Z,76.36
2022-12-24T02:44:21.143Z,79.62
2022-12-24T02:46:48.003Z,83.39
2022-12-24T02:49:14.751Z,82.21
2022-12-24T02:51:41.435Z,79.45
2022-12-24T02:54:08.321Z,79.79
2022-12-24T02:56:54.596Z,80.60
2022-12-24T02:59:28.626Z,78.53
2022-12-24T03:02:05.310Z,79.08
2022-12-24T03:04:39.910Z,78.55
2022-12-24T03:07:15.589Z,78.33
2022-12-24T03:09:51.431Z,77.63
2022-12-24T03:12:22.603Z,77.48
2022-12-24T03:14:49.243Z,78.72
2022-12-24T03:17:15.962Z,79.65
2022-12-24T03:19:42.599Z,80.56
2022-12-24T03:22:10.376Z,77.49
2022-12-24T03:24:37.078Z,78.03
2022-12-24T03:27:04.982Z,73.31
2022-12-24T03:29:31.826Z,73.50
2022-12-24T03:32:02.496Z,73.74
2022-12-24T03:34:29.171Z,73.49
2022-12-24T03:36:56.039Z,74.49
2022-12-24T03:39:22.865Z,76.85
2022-12-24T03:41:49.549Z,80.40
2022-12-24T03:44:16.206Z,77.99
2022-12-24T03:46:42.864Z,75.92
2022-12-24T03:49:09.605Z,73.56
2022-12-24T03:51:36.323Z,73.19
2022-12-24T03:54:02.993Z,72.95
2022-12-24T03:56:29.634Z,74.54
2022-12-24T03:58:56.267Z,74.18
2022-12-24T04:01:22.994Z,75.85
2022-12-24T04:03:49.809Z,73.65
2022-12-24T04:06:17.898Z,69.99
2022-12-24T04:08:44.552Z,70.91
2022-12-24T04:11:12.135Z,71.39
2022-12-24T04:13:38.910Z,74.97
2022-12-24T04:16:06.918Z,75.40
2022-12-24T04:18:33.767Z,76.42
2022-12-24T04:21:00.534Z,76.15
2022-12-24T04:23:27.173Z,75.77
2022-12-24T04:25:53.840Z,76.84
2022-12-24T04:28:20.463Z,76.53
2022-12-24T04:30:47.117Z,76.46
2022-12-24T04:33:13.775Z,74.74
2022-12-24T04:35:41.480Z,73.67
2022-12-24T04:38:08.776Z,71.83
2022-12-24T04:40:35.471Z,69.82
2022-12-24T04:43:02.162Z,66.84
2022-12-24T04:45:28.835Z,65.96
2022-12-24T04:47:55.493Z,62.98
2022-12-24T04:50:22.144Z,63.47
2022-12-24T04:52:48.884Z,62.24
2022-12-24T04:55:15.584Z,62.24
2022-12-24T04:57:42.240Z,62.88
2022-12-24T05:00:09.189Z,64.93
2022-12-24T05:02:35.959Z,63.50
2022-12-24T05:05:03.339Z,65.12
2022-12-24T05:07:30.004Z,65.30
2022-12-24T05:09:56.644Z,63.79
2022-12-24T05:12:23.583Z,67.39
2022-12-24T05:14:50.241Z,64.06
2022-12-24T05:17:16.938Z,63.24
2022-12-24T05:19:43.643Z,61.78
2022-12-24T05:22:29.039Z,61.92
2022-12-24T05:25:13.947Z,62.15
2022-12-24T05:27:43.449Z,62.01
2022-12-24T05:30:14.140Z,61.17
2022-12-24T05:32:40.764Z,60.39
2022-12-24T05:35:07.586Z,62.12
2022-12-24T05:37:34.287Z,61.90
2022-12-24T05:40:01.033Z,63.12
2022-12-24T05:42:27.687Z,64.97
2022-12-24T05:44:54.336Z,65.83
2022-12-24T05:47:20.958Z,67.46
2022-12-24T05:49:47.591Z,66.71
2022-12-24T05:52:14.302Z,68.46
2022-12-24T05:54:40.956Z,66.25
2022-12-24T05:57:08.321Z,64.39
2022-12-24T05:59:35.180Z,65.75
2022-12-24T06:02:01.916Z,61.32
2022-12-24T06:04:29.416Z,59.70
2022-12-24T06:06:56.283Z,64.63
2022-12-24T06:09:22.926Z,58.53
2022-12-24T06:11:49.540Z,61.18
2022-12-24T06:14:16.158Z,56.69
2022-12-24T06:16:42.828Z,58.53
2022-12-24T06:19:09.454Z,63.52
2022-12-24T06:21:36.415Z,68.16
2022-12-24T06:24:03.238Z,69.47
2022-12-24T06:26:29.906Z,71.45
2022-12-24T06:28:56.563Z,71.37
2022-12-24T06:31:23.708Z,71.93
2022-12-24T06:33:50.628Z,74.33
2022-12-24T06:36:18.421Z,74.48
2022-12-24T06:38:45.816Z,75.00
2022-12-24T06:41:12.470Z,76.61
2022-12-24T06:43:39.132Z,77.98
2022-12-24T06:46:05.850Z,77.46
2022-12-24T06:48:32.603Z,75.80
2022-12-24T06:50:59.286Z,74.74
2022-12-24T06:53:26.045Z,68.65
2022-12-24T06:55:52.703Z,68.92
2022-12-24T06:58:19.333Z,71.60
2022-12-24T07:00:47.576Z,70.52
2022-12-24T07:03:14.405Z,69.77
2022-12-24T07:05:41.207Z,67.44
2022-12-24T07:08:08.590Z,68.77
2022-12-24T07:10:35.257Z,68.47
2022-12-24T07:13:01.916Z,64.73
2022-12-24T07:15:28.571Z,64.34
2022-12-24T07:17:55.241Z,64.17
2022-12-24T07:20:21.943Z,64.85
2022-12-24T07:22:48.641Z,64.62
2022-12-24T07:25:15.504Z,60.98
2022-12-24T07:27:42.144Z,62.42
2022-12-24T07:30:09.368Z,58.72
2022-12-24T07:32:36.032Z,59.65
2022-12-24T07:35:03.191Z,62.04
2022-12-24T07:37:29.929Z,60.46
2022-12-24T07:39:56.636Z,61.23
2022-12-24T07:42:23.308Z,59.61
2022-12-24T07:44:49.969Z,61.42
2022-12-24T07:47:16.616Z,60.20
2022-12-24T07:49:43.302Z,62.02
2022-12-24T07:52:09.981Z,62.33
2022-12-24T07:54:36.725Z,57.83
2022-12-24T07:57:03.419Z,56.73
2022-12-24T07:59:30.091Z,59.61
2022-12-24T08:01:56.915Z,61.47
2022-12-24T08:04:23.690Z,64.39
2022-12-24T08:06:50.341Z,62.50
2022-12-24T08:09:17.096Z,62.80
2022-12-24T08:11:49.879Z,62.36
2022-12-24T08:14:18.895Z,68.45
2022-12-24T08:16:45.577Z,70.10
2022-12-24T08:19:12.290Z,68.01
2022-12-24T08:21:38.948Z,71.53
2022-12-24T08:24:05.696Z,72.19
2022-12-24T08:26:32.452Z,75.43
2022-12-24T08:28:59.111Z,76.41
2022-12-24T08:31:25.805Z,72.93
2022-12-24T08:33:52.498Z,74.67
2022-12-24T08:36:19.139Z,75.42
2022-12-24T08:38:45.866Z,72.41
2022-12-24T08:41:12.544Z,72.18
2022-12-24T08:43:39.226Z,75.92
2022-12-24T08:46:06.143Z,76.56
2022-12-24T08:48:33.359Z,78.24
2022-12-24T08:51:00.005Z,81.18
2022-12-24T08:53:26.706Z,78.17
2022-12-24T08:55:56.124Z,77.30
2022-12-24T08:58:23.117Z,75.34
2022-12-24T09:00:49.838Z,75.71
2022-12-24T09:03:19.566Z,73.55
2022-12-24T09:05:50.239Z,73.46
2022-12-24T09:08:16.898Z,69.57
2022-12-24T09:10:43.600Z,65.94
2022-12-24T09:13:10.259Z,69.87
2022-12-24T09:15:36.945Z,69.13
2022-12-24T09:18:03.828Z,69.00
2022-12-24T09:20:30.463Z,68.08
2022-12-24T09:22:57.107Z,63.52
2022-12-24T09:25:23.782Z,62.97
2022-12-24T09:27:50.421Z,64.45
2022-12-24T09:30:17.116Z,64.43
2022-12-24T09:32:43.802Z,64.15
2022-12-24T09:35:10.452Z,64.11
2022-12-24T09:37:37.574Z,64.47
2022-12-24T09:40:04.357Z,66.07
2022-12-24T09:42:47.272Z,66.14
2022-12-24T09:45:29.818Z,68.05
2022-12-24T09:48:06.445Z,67.49
2022-12-24T09:50:33.111Z,66.24
2022-12-24T09:53:00.959Z,66.34
2022-12-24T09:55:29.138Z,67.53
2022-12-24T09:57:56.061Z,69.18
2022-12-24T10:00:24.199Z,66.68
2022-12-24T10:02:50.987Z,64.82
2022-12-24T10:05:18.454Z,69.42
2022-12-24T10:08:03.746Z,64.03
2022-12-24T10:10:30.396Z,64.57
2022-12-24T10:13:00.819Z,63.75
2022-12-24T10:15:27.478Z,61.64
2022-12-24T10:18:07.627Z,62.69
2022-12-24T10:20:40.198Z,63.37
2022-12-24T10:23:09.751Z,64.24
2022-12-24T10:25:45.541Z,62.62
2022-12-24T10:28:19.586Z,65.67
2022-12-24T10:30:48.893Z,60.46
2022-12-24T10:33:19.699Z,61.94
2022-12-24T10:35:48.008Z,61.51
2022-12-24T10:38:14.651Z,59.50
2022-12-24T10:40:42.782Z,57.43
2022-12-24T10:43:22.783Z,57.08
2022-12-24T10:46:00.031Z,57.42
2022-12-24T10:48:31.222Z,61.88
2022-12-24T10:51:06.103Z,62.51
2022-12-24T10:53:38.745Z,61.67
2022-12-24T10:56:06.708Z,62.11
2022-12-24T10:58:33.333Z,60.21
2022-12-24T11:01:00.146Z,59.69
2022-12-24T11:03:33.831Z,59.64
2022-12-24T11:06:01.476Z,56.99
2022-12-24T11:08:28.105Z,54.95
2022-12-24T11:11:13.723Z,55.62
2022-12-24T11:14:00.593Z,53.34
2022-12-24T11:16:30.186Z,53.01
2022-12-24T11:18:58.047Z,54.43
2022-12-24T11:21:31.787Z,55.29
2022-12-24T11:23:59.635Z,53.30
2022-12-24T11:26:27.939Z,52.39
2022-12-24T11:29:14.853Z,53.09
2022-12-24T11:31:42.428Z,51.88
2022-12-24T11:34:27.565Z,52.85
2022-12-24T11:36:54.838Z,54.86
2022-12-24T11:39:22.654Z,53.18
2022-12-24T11:41:51.219Z,54.17
2022-12-24T11:44:23.948Z,52.85
2022-12-24T11:46:56.688Z,53.11
2022-12-24T11:49:25.005Z,53.11
2022-12-24T11:52:00.222Z,53.76
2022-12-24T11:54:27.494Z,54.74
2022-12-24T11:56:54.872Z,53.73
2022-12-24T11:59:34.387Z,51.56
2022-12-24T12:02:13.058Z,52.00
2022-12-24T12:04:39.795Z,50.91
2022-12-24T12:07:22.422Z,50.74
2022-12-24T12:09:52.121Z,51.91
2022-12-24T12:12:22.831Z,50.26
2022-12-24T12:14:51.349Z,49.84
2022-12-24T12:17:24.510Z,49.47
2022-12-24T12:19:57.648Z,50.30
2022-12-24T12:22:33.289Z,49.96
2022-12-24T12:24:59.933Z,48.70
2022-12-24T12:27:34.406Z,49.12
2022-12-24T12:30:02.860Z,47.41
2022-12-24T12:32:34.638Z,49.17
2022-12-24T12:35:03.529Z,48.42
2022-12-24T12:37:37.552Z,47.59
2022-12-24T12:40:04.379Z,47.01
2022-12-24T12:42:32.089Z,45.22
2022-12-24T12:45:01.763Z,46.16
2022-12-24T12:47:34.662Z,46.87
2022-12-24T12:50:23.805Z,45.70
2022-12-24T12:53:09.205Z,48.88
2022-12-24T12:55:35.861Z,47.85
2022-12-24T12:58:06.349Z,48.35
2022-12-24T13:00:33.909Z,46.95
2022-12-24T13:03:19.220Z,48.00
2022-12-24T13:06:00.973Z,50.36
2022-12-24T13:08:30.609Z,52.01
2022-12-24T13:11:15.697Z,53.63
2022-12-24T13:13:48.956Z,51.20
2022-12-24T13:16:30.508Z,51.28
2022-12-24T13:19:03.437Z,51.24
2022-12-24T13:21:30.680Z,50.57
2022-12-24T13:24:17.923Z,50.80
2022-12-24T13:26:59.735Z,51.01
2022-12-24T13:29:35.568Z,48.96
2022-12-24T13:32:20.551Z,47.35
2022-12-24T13:34:56.901Z,47.67
2022-12-24T13:37:29.710Z,47.48
2022-12-24T13:40:08.738Z,47.26
2022-12-24T13:42:54.042Z,46.23
2022-12-24T13:45:29.976Z,47.88
2022-12-24T13:47:56.799Z,50.26
2022-12-24T13:50:28.879Z,52.86
2022-12-24T13:52:55.509Z,52.63
2022-12-24T13:55:22.254Z,54.71
2022-12-24T13:57:55.198Z,56.49
2022-12-24T14:00:21.839Z,53.80
2022-12-24T14:02:57.839Z,54.43
2022-12-24T14:05:29.435Z,53.73
2022-12-24T14:07:56.093Z,51.22
2022-12-24T14:10:24.072Z,51.00
2022-12-24T14:12:51.578Z,51.11
2022-12-24T14:15:36.718Z,49.61
2022-12-24T14:18:03.402Z,51.47
2022-12-24T14:20:31.583Z,49.00
2022-12-24T14:22:58.246Z,49.98
2022-12-24T14:25:24.948Z,51.14
2022-12-24T14:28:04.781Z,50.63
2022-12-24T14:30:31.697Z,54.16
2022-12-24T14:32:58.361Z,54.75
2022-12-24T14:35:26.115Z,54.92
2022-12-24T14:37:57.240Z,54.13
2022-12-24T14:40:27.617Z,55.53
2022-12-24T14:42:59.479Z,58.99
2022-12-24T14:45:26.270Z,61.76
2022-12-24T14:48:00.063Z,64.65
2022-12-24T14:50:32.805Z,66.98
2022-12-24T14:53:19.208Z,67.30
2022-12-24T14:55:49.377Z,69.18
2022-12-24T14:58:26.494Z,70.82
2022-12-24T15:00:54.940Z,68.50
2022-12-24T15:03:22.696Z,68.23
2022-12-24T15:05:56.625Z,71.32
2022-12-24T15:08:28.485Z,70.93
2022-12-24T15:10:55.720Z,72.14
2022-12-24T15:13:22.370Z,74.49
2022-12-24T15:15:52.646Z,76.42
2022-12-24T15:18:21.408Z,79.02
2022-12-24T15:21:03.971Z,77.89
2022-12-24T15:23:37.645Z,79.53
2022-12-24T15:26:08.655Z,80.93
2022-12-24T15:28:36.844Z,78.11
2022-12-24T15:31:09.562Z,73.44
2022-12-24T15:33:37.532Z,72.44
2022-12-24T15:36:04.532Z,73.58
2022-12-24T15:38:32.199Z,71.73
2022-12-24T15:40:59.013Z,70.50
2022-12-24T15:43:25.714Z,68.48
2022-12-24T15:45:52.426Z,64.73
2022-12-24T15:48:21.357Z,58.85
2022-12-24T15:50:52.307Z,58.28
2022-12-24T15:53:26.051Z,60.42
2022-12-24T15:56:02.858Z,59.59
2022-12-24T15:58:33.608Z,63.87
2022-12-24T16:01:22.275Z,61.72
2022-12-24T16:03:51.927Z,61.02
2022-12-24T16:06:18.736Z,65.07
2022-12-24T16:08:45.673Z,62.69
2022-12-24T16:11:13.830Z,63.95
2022-12-24T16:13:44.622Z,61.66
2022-12-24T16:16:14.826Z,62.94
2022-12-24T16:18:41.475Z,65.49
2022-12-24T16:21:08.313Z,65.82
2022-12-24T16:23:34.935Z,64.51
2022-12-24T16:26:01.611Z,66.72
2022-12-24T16:28:28.418Z,63.52
2022-12-24T16:31:03.312Z,63.98
2022-12-24T16:33:30.100Z,63.57
2022-12-24T16:35:56.832Z,65.31
2022-12-24T16:38:23.668Z,67.56
2022-12-24T16:41:05.363Z,64.10
2022-12-24T16:43:50.090Z,64.18
2022-12-24T16:46:16.864Z,61.23
2022-12-24T16:48:45.224Z,62.17
2022-12-24T16:51:20.363Z,60.65
2022-12-24T16:53:46.992Z,61.74
2022-12-24T16:56:13.651Z,64.07
2022-12-24T16:58:40.268Z,63.46
2022-12-24T17:01:25.372Z,62.25
2022-12-24T17:03:52.178Z,62.62
2022-12-24T17:06:18.827Z,61.04
2022-12-24T17:08:45.537Z,58.62
2022-12-24T17:11:12.190Z,59.28
2022-12-24T17:13:38.826Z,57.77
2022-12-24T17:16:05.815Z,57.28
2022-12-24T17:18:32.477Z,58.93
2022-12-24T17:21:00.067Z,57.23
2022-12-24T17:23:27.028Z,57.75
2022-12-24T17:25:53.727Z,56.72
2022-12-24T17:28:21.732Z,55.52
2022-12-24T17:30:59.465Z,54.90
2022-12-24T17:33:26.105Z,55.54
2022-12-24T17:35:52.749Z,54.14
2022-12-24T17:38:19.402Z,52.63
2022-12-24T17:40:46.053Z,52.71
2022-12-24T17:43:12.776Z,53.05
2022-12-24T17:45:42.566Z,52.17
2022-12-24T17:48:09.286Z,51.87
2022-12-24T17:50:40.160Z,53.26
2022-12-24T17:53:06.872Z,53.02
2022-12-24T17:55:33.625Z,49.94
2022-12-24T17:58:00.400Z,55.68
2022-12-24T18:00:32.819Z,55.49
2022-12-24T18:03:00.124Z,55.48
2022-12-24T18:05:26.868Z,57.95
2022-12-24T18:07:53.580Z,59.67
2022-12-24T18:10:21.346Z,60.55
2022-12-24T18:12:48.022Z,62.13
2022-12-24T18:15:18.051Z,66.01
2022-12-24T18:17:44.696Z,63.72
2022-12-24T18:20:12.579Z,63.83
2022-12-24T18:22:39.257Z,60.76
2022-12-24T18:25:06.772Z,61.77
2022-12-24T18:27:34.853Z,60.48
2022-12-24T18:30:03.890Z,61.50
2022-12-24T18:32:30.519Z,63.37
2022-12-24T18:34:57.230Z,66.10
2022-12-24T18:37:23.905Z,65.32
2022-12-24T18:39:52.597Z,65.10
2022-12-24T18:42:19.299Z,63.85
2022-12-24T18:44:46.041Z,61.81
2022-12-24T18:47:12.847Z,57.27
2022-12-24T18:49:39.516Z,57.17
2022-12-24T18:52:09.502Z,58.28
2022-12-24T18:54:36.591Z,57.07
2022-12-24T18:57:03.643Z,53.19
2022-12-24T18:59:32.336Z,51.03
2022-12-24T19:01:59.294Z,50.97
2022-12-24T19:04:26.051Z,50.89
2022-12-24T19:06:53.463Z,50.87
2022-12-24T19:09:20.718Z,50.69
2022-12-24T19:11:47.370Z,51.42
2022-12-24T19:14:14.126Z,53.20
2022-12-24T19:16:41.404Z,53.60
2022-12-24T19:19:09.039Z,59.55
2022-12-24T19:21:35.701Z,60.19
2022-12-24T19:24:02.356Z,60.40
2022-12-24T19:26:29.051Z,58.42
2022-12-24T19:28:55.696Z,61.30
2022-12-24T19:31:24.394Z,61.38
2022-12-24T19:33:53.178Z,60.55
2022-12-24T19:36:21.157Z,58.89
2022-12-24T19:38:47.975Z,57.14
2022-12-24T19:41:24.602Z,57.95
2022-12-24T19:43:52.373Z,61.02
2022-12-24T19:46:20.187Z,61.49
2022-12-24T19:48:56.621Z,59.31
2022-12-24T19:51:25.686Z,57.62
2022-12-24T19:53:55.484Z,56.46
2022-12-24T19:56:22.598Z,54.58
2022-12-24T19:58:49.351Z,53.40
2022-12-24T20:01:18.379Z,52.54
2022-12-24T20:03:45.496Z,50.88
2022-12-24T20:06:12.754Z,49.93
2022-12-24T20:08:39.627Z,52.55
2022-12-24T20:11:09.179Z,53.44
2022-12-24T20:13:36.323Z,53.35
2022-12-24T20:16:04.272Z,54.26
2022-12-24T20:18:30.945Z,54.91
2022-12-24T20:21:00.987Z,57.85
2022-12-24T20:23:27.694Z,58.06
2022-12-24T20:25:58.775Z,58.68
2022-12-24T20:28:28.127Z,58.24
2022-12-24T20:30:56.925Z,58.21
2022-12-24T20:33:24.166Z,58.42
2022-12-24T20:35:50.827Z,59.57
2022-12-24T20:38:17.476Z,60.12
2022-12-24T20:40:45.573Z,59.40
2022-12-24T20:43:12.619Z,60.99
2022-12-24T20:45:39.505Z,59.44
2022-12-24T20:48:06.425Z,58.86
2022-12-24T20:50:41.196Z,59.51
2022-12-24T20:53:07.815Z,59.85
2022-12-24T20:55:34.912Z,60.85
2022-12-24T20:58:01.667Z,62.41
2022-12-24T21:00:29.422Z,64.01
2022-12-24T21:02:56.188Z,62.23
2022-12-24T21:05:23.154Z,61.54
2022-12-24T21:07:49.779Z,62.36
2022-12-24T21:10:20.554Z,62.19
2022-12-24T21:12:50.398Z,61.09
2022-12-24T21:15:17.702Z,62.76
2022-12-24T21:17:44.386Z,62.66
2022-12-24T21:20:11.365Z,61.25
2022-12-24T21:22:38.324Z,61.46
2022-12-24T21:25:05.582Z,61.16
2022-12-24T21:27:32.373Z,61.28
2022-12-24T21:29:59.037Z,61.07
2022-12-24T21:32:25.847Z,61.63
2022-12-24T21:34:52.541Z,61.93
2022-12-24T21:37:19.536Z,61.88
2022-12-24T21:39:48.186Z,63.13
2022-12-24T21:42:14.906Z,62.62
2022-12-24T21:44:41.654Z,61.53
2022-12-24T21:47:08.387Z,62.61
2022-12-24T21:49:53.387Z,61.18
2022-12-24T21:52:20.009Z,59.41
2022-12-24T21:54:46.649Z,61.46
2022-12-24T21:57:31.901Z,59.74
2022-12-24T22:00:20.529Z,59.48
2022-12-24T22:02:47.610Z,60.36
2022-12-24T22:05:14.549Z,61.02
2022-12-24T22:07:59.863Z,60.65
2022-12-24T22:10:46.066Z,61.29
2022-12-24T22:13:12.801Z,61.84
2022-12-24T22:15:43.599Z,61.42
2022-12-24T22:18:10.350Z,63.03
2022-12-24T22:20:37.213Z,64.02
2022-12-24T22:23:03.919Z,63.37
2022-12-24T22:25:30.851Z,61.04
2022-12-24T22:27:57.527Z,58.72
2022-12-24T22:30:26.224Z,59.60
2022-12-24T22:32:52.905Z,59.69
2022-12-24T22:35:19.572Z,55.61
2022-12-24T22:37:46.303Z,56.53
2022-12-24T22:40:13.213Z,61.17
2022-12-24T22:42:41.084Z,64.70
2022-12-24T22:45:08.331Z,62.16
2022-12-24T22:47:35.008Z,61.64
2022-12-24T22:50:02.909Z,57.70
2022-12-24T22:52:31.473Z,59.26
2022-12-24T22:54:58.118Z,58.10
2022-12-24T22:57:24.773Z,55.21
2022-12-24T22:59:52.452Z,54.35
2022-12-24T23:02:25.747Z,55.89
2022-12-24T23:04:54.612Z,56.59
2022-12-24T23:07:21.335Z,57.31
2022-12-24T23:09:48.069Z,56.69
2022-12-24T23:12:34.632Z,53.73
2022-12-24T23:15:01.323Z,53.08
2022-12-24T23:17:27.988Z,53.13
2022-12-24T23:19:57.640Z,53.65
2022-12-24T23:22:24.267Z,51.53
2022-12-24T23:24:50.911Z,53.19
2022-12-24T23:27:17.581Z,55.50
2022-12-24T23:29:44.226Z,57.29
2022-12-24T23:32:10.937Z,57.51
2022-12-24T23:34:37.586Z,55.06
2022-12-24T23:37:04.256Z,52.01
2022-12-24T23:39:34.822Z,53.48
2022-12-24T23:42:01.467Z,52.21
2022-12-24T23:44:32.274Z,52.42
2022-12-24T23:46:59.695Z,52.91
2022-12-24T23:49:26.956Z,54.22
2022-12-24T23:51:53.607Z,53.05
2022-12-24T23:54:20.261Z,54.32
2022-12-24T23:56:46.919Z,53.19
2022-12-24T23:59:13.557Z,53.66
